Time;durP1;ratioP1;P1;durP2;ratioP2;P2;SDS_P1;SDS_P2;PMS_P1;PMS_P2;Temp;Humidity;BMP_temperature;BMP_pressure;BME280_temperature;BME280_humidity;BME280_pressure;Samples;Min_cycle;Max_cycle;Signal;HPM_P1;HPM_P2
2023/09/10 00:01:32;;;;;;;22.00;19.00;;;;;;;17.63;90.34;101097.21;105157;1267;99784;-84
2023/09/10 00:04:18;;;;;;;21.70;19.00;;;;;;;17.61;90.55;101095.23;105074;1270;99845;-83
2023/09/10 00:07:03;;;;;;;23.10;19.10;;;;;;;17.60;90.34;101093.89;105058;1267;102833;-85
2023/09/10 00:09:49;;;;;;;24.60;20.10;;;;;;;17.56;90.05;101092.42;105015;1270;99382;-83
2023/09/10 00:12:34;;;;;;;22.70;19.60;;;;;;;17.51;89.99;101091.41;105220;1267;99886;-84
2023/09/10 00:15:20;;;;;;;21.80;18.30;;;;;;;17.47;90.23;101094.67;105075;1273;99422;-84
2023/09/10 00:18:06;;;;;;;19.20;16.80;;;;;;;17.43;90.32;101092.79;104947;1267;99358;-82
2023/09/10 00:20:53;;;;;;;23.40;16.00;;;;;;;17.37;90.39;101092.37;105105;1268;111462;-83
2023/09/10 00:23:38;;;;;;;18.50;13.10;;;;;;;17.32;90.11;101095.81;105062;1272;100469;-83
2023/09/10 00:26:26;;;;;;;14.50;12.30;;;;;;;17.24;90.27;101090.54;105258;1270;99344;-83
2023/09/10 00:29:11;;;;;;;21.50;11.40;;;;;;;17.18;90.37;101091.25;104953;1267;99268;-84
2023/09/10 00:31:57;;;;;;;17.00;12.30;;;;;;;17.15;90.73;101095.89;105046;1267;99220;-84
2023/09/10 00:34:43;;;;;;;16.70;14.20;;;;;;;17.12;90.58;101094.37;105235;1267;103605;-82
2023/09/10 00:37:29;;;;;;;18.70;13.60;;;;;;;17.10;90.67;101092.17;105055;1268;99819;-83
2023/09/10 00:40:14;;;;;;;18.80;13.00;;;;;;;17.06;90.55;101089.83;105008;1270;99467;-83
2023/09/10 00:42:59;;;;;;;16.00;12.70;;;;;;;17.01;90.76;101088.15;105030;1270;99326;-84
2023/09/10 00:45:46;;;;;;;18.50;13.80;;;;;;;16.98;90.75;101081.83;104875;1267;135609;-84
2023/09/10 00:48:36;;;;;;;23.10;15.60;;;;;;;16.98;90.94;101087.61;105178;1267;104090;-84
2023/09/10 00:51:22;;;;;;;23.20;16.80;;;;;;;16.99;90.84;101086.56;105173;1273;100890;-83
2023/09/10 00:54:08;;;;;;;21.70;16.40;;;;;;;17.01;91.24;101085.68;104890;1267;99392;-83
2023/09/10 00:56:54;;;;;;;27.00;19.40;;;;;;;17.03;91.59;101084.75;105094;1272;99279;-83
2023/09/10 00:59:40;;;;;;;22.60;17.90;;;;;;;17.04;91.36;101084.17;105225;1272;100203;-84
2023/09/10 01:02:26;;;;;;;20.40;17.40;;;;;;;17.03;91.20;101081.64;104999;1269;103392;-84
2023/09/10 01:05:12;;;;;;;25.50;17.60;;;;;;;16.99;91.16;101081.12;105115;1273;99379;-83
2023/09/10 01:07:58;;;;;;;22.80;17.60;;;;;;;16.92;90.99;101085.77;105039;1270;99322;-83
2023/09/10 01:11:28;;;;;;;23.00;17.70;;;;;;;16.88;91.06;101087.41;104944;1267;99456;-82
2023/09/10 01:14:36;;;;;;;22.00;17.80;;;;;;;16.85;91.21;101091.64;105006;1284;99348;-84
2023/09/10 01:17:31;;;;;;;19.10;16.90;;;;;;;16.85;91.19;101090.27;104912;1270;102831;-83
2023/09/10 01:20:32;;;;;;;24.00;18.70;;;;;;;16.85;91.07;101091.18;105153;1267;100138;-82
2023/09/10 01:23:29;;;;;;;26.50;18.60;;;;;;;16.83;90.94;101092.43;105018;1268;99931;-83
2023/09/10 01:26:15;;;;;;;22.90;17.20;;;;;;;16.80;90.96;101089.91;105067;1270;99470;-84
2023/09/10 01:29:00;;;;;;;21.50;17.30;;;;;;;16.75;90.97;101089.10;105056;1267;100531;-83
2023/09/10 01:31:51;;;;;;;20.50;17.40;;;;;;;16.70;91.10;101089.01;105169;1267;104085;-83
2023/09/10 01:34:43;;;;;;;20.30;16.00;;;;;;;16.64;91.31;101090.27;104969;1267;99273;-83
2023/09/10 01:37:58;;;;;;;17.80;14.10;;;;;;;16.60;91.28;101086.91;105105;1273;99274;-84
2023/09/10 01:40:57;;;;;;;17.80;13.10;;;;;;;16.56;91.55;101090.05;105237;1273;99341;-83
2023/09/10 01:43:43;;;;;;;18.60;13.10;;;;;;;16.51;91.43;101091.15;105208;1272;99403;-84
2023/09/10 01:46:32;;;;;;;14.90;13.40;;;;;;;16.48;91.53;101091.63;105141;1267;102826;-85
2023/09/10 01:49:18;;;;;;;18.40;13.50;;;;;;;16.46;91.60;101090.34;105000;1272;100648;-83
2023/09/10 01:52:04;;;;;;;14.90;13.00;;;;;;;16.43;91.73;101088.49;105006;1267;99365;-82
2023/09/10 01:54:50;;;;;;;20.20;15.50;;;;;;;16.40;92.17;101086.13;104864;1276;99922;-82
2023/09/10 01:57:35;;;;;;;21.90;16.90;;;;;;;16.41;92.07;101085.13;104883;1267;99217;-81
2023/09/10 02:00:22;;;;;;;18.00;14.50;;;;;;;16.42;91.78;101085.66;104979;1270;103544;-83
2023/09/10 02:03:08;;;;;;;18.40;15.90;;;;;;;16.43;91.78;101084.51;105004;1270;100215;-83
2023/09/10 02:05:53;;;;;;;23.20;17.30;;;;;;;16.43;91.82;101085.87;105016;1273;99272;-83
2023/09/10 02:08:39;;;;;;;20.70;18.00;;;;;;;16.44;92.01;101089.78;104886;1268;99434;-84
2023/09/10 02:11:27;;;;;;;25.10;18.00;;;;;;;16.43;92.20;101086.90;104966;1267;99421;-83
2023/09/10 02:14:13;;;;;;;20.70;18.50;;;;;;;16.40;92.02;101083.66;105071;1270;103890;-83
2023/09/10 02:16:58;;;;;;;24.60;18.80;;;;;;;16.37;92.20;101086.88;105058;1270;99325;-83
2023/09/10 02:19:44;;;;;;;24.80;18.40;;;;;;;16.35;92.36;101087.33;104958;1276;99790;-84
2023/09/10 02:22:29;;;;;;;26.70;18.80;;;;;;;16.34;92.49;101081.83;105030;1269;99348;-84
2023/09/10 02:25:16;;;;;;;23.90;20.40;;;;;;;16.32;92.53;101077.59;104958;1273;99876;-83
2023/09/10 02:28:02;;;;;;;21.80;19.50;;;;;;;16.32;92.56;101075.96;105070;1267;102679;-84
2023/09/10 02:30:48;;;;;;;26.60;18.40;;;;;;;16.31;92.34;101074.76;105063;1271;99457;-83
2023/09/10 02:33:34;;;;;;;25.20;20.10;;;;;;;16.31;92.38;101077.05;105126;1273;99273;-84
2023/09/10 02:36:20;;;;;;;23.20;19.20;;;;;;;16.31;92.31;101081.54;104897;1276;99482;-83
2023/09/10 02:39:05;;;;;;;25.40;20.00;;;;;;;16.32;92.42;101081.58;105058;1273;99513;-83
2023/09/10 02:41:52;;;;;;;25.90;21.00;;;;;;;16.32;92.30;101083.95;105103;1267;102819;-83
2023/09/10 02:44:38;;;;;;;24.50;18.70;;;;;;;16.31;92.39;101084.16;105384;1267;99279;-83
2023/09/10 02:47:23;;;;;;;23.50;19.90;;;;;;;16.30;92.45;101085.95;105148;1267;99361;-82
2023/09/10 02:50:09;;;;;;;27.50;20.60;;;;;;;16.29;92.42;101086.77;105035;1273;99366;-87
2023/09/10 02:52:55;;;;;;;30.20;22.30;;;;;;;16.28;92.08;101089.48;104990;1267;99957;-84
2023/09/10 02:55:40;;;;;;;26.80;21.70;;;;;;;16.25;92.48;101085.01;105028;1267;104069;-82
2023/09/10 02:58:26;;;;;;;24.30;21.20;;;;;;;16.22;92.95;101083.75;104943;1267;100566;-84
2023/09/10 03:01:12;;;;;;;27.80;21.20;;;;;;;16.20;92.72;101082.05;104808;1270;99336;-85
2023/09/10 03:03:57;;;;;;;28.10;22.30;;;;;;;16.19;92.55;101083.14;104796;1268;97378;-84
2023/09/10 03:06:44;;;;;;;24.20;20.90;;;;;;;16.18;92.72;101081.48;104998;1274;99363;-83
2023/09/10 03:09:30;;;;;;;28.10;22.00;;;;;;;16.16;92.95;101085.81;105022;1267;102848;-85
2023/09/10 03:12:22;;;;;;;24.80;21.90;;;;;;;16.16;93.10;101085.91;104850;1273;99370;-83
2023/09/10 03:15:08;;;;;;;26.60;22.10;;;;;;;16.17;93.36;101083.06;105320;1267;99594;-83
2023/09/10 03:17:54;;;;;;;28.70;22.80;;;;;;;16.17;93.31;101085.48;104991;1267;99383;-84
2023/09/10 03:20:39;;;;;;;33.10;23.30;;;;;;;16.18;93.51;101086.69;104865;1270;99867;-83
2023/09/10 03:23:25;;;;;;;30.10;23.20;;;;;;;16.19;93.55;101081.73;105087;1270;102734;-83
2023/09/10 03:26:14;;;;;;;25.80;22.50;;;;;;;16.19;93.52;101081.02;105017;1273;99768;-83
2023/09/10 03:29:00;;;;;;;32.10;23.10;;;;;;;16.17;93.55;101081.90;104774;1273;100019;-84
2023/09/10 03:31:47;;;;;;;25.90;23.10;;;;;;;16.17;93.65;101081.08;105024;1267;99509;-83
2023/09/10 03:34:47;;;;;;;31.70;25.10;;;;;;;16.16;93.93;101077.59;105075;1273;99236;-83
2023/09/10 03:37:34;;;;;;;31.70;24.00;;;;;;;16.15;93.76;101075.54;105132;1274;104948;-85
2023/09/10 03:40:20;;;;;;;30.70;23.70;;;;;;;16.13;93.66;101073.90;105040;1272;99340;-84
2023/09/10 03:43:06;;;;;;;33.60;25.00;;;;;;;16.11;93.43;101070.87;105016;1267;99389;-85
2023/09/10 03:45:52;;;;;;;27.40;22.30;;;;;;;16.10;93.46;101073.73;104867;1276;99427;-82
2023/09/10 03:48:38;;;;;;;29.30;23.40;;;;;;;16.09;93.48;101072.86;104865;1273;99826;-84
2023/09/10 03:51:27;;;;;;;26.90;22.10;;;;;;;16.07;93.42;101070.45;105088;1267;104062;-83
2023/09/10 03:54:12;;;;;;;25.90;22.20;;;;;;;16.03;93.22;101067.17;104994;1270;99314;-86
2023/09/10 03:56:58;;;;;;;30.10;23.70;;;;;;;16.00;93.38;101065.05;104932;1267;99332;-86
2023/09/10 03:59:44;;;;;;;28.00;23.90;;;;;;;15.99;93.48;101065.27;105102;1268;99259;-85
2023/09/10 04:02:30;;;;;;;32.80;23.80;;;;;;;15.97;93.38;101065.80;105189;1272;99789;-86
2023/09/10 04:05:17;;;;;;;27.10;23.60;;;;;;;15.95;93.52;101065.23;105208;1267;104056;-83
2023/09/10 04:08:05;;;;;;;28.60;23.50;;;;;;;15.93;93.31;101063.15;105193;1267;99270;-82
2023/09/10 04:10:50;;;;;;;28.10;23.80;;;;;;;15.93;93.78;101060.88;105032;1267;99373;-84
2023/09/10 04:13:37;;;;;;;30.90;24.60;;;;;;;15.91;93.83;101059.84;105054;1272;99252;-84
2023/09/10 04:16:23;;;;;;;33.20;25.20;;;;;;;15.88;93.96;101062.75;105028;1270;99921;-83
2023/09/10 04:19:08;;;;;;;27.10;24.20;;;;;;;15.87;94.29;101060.71;104823;1272;102958;-83
2023/09/10 04:21:53;;;;;;;29.10;24.60;;;;;;;15.87;94.41;101058.60;105090;1267;100605;-85
2023/09/10 04:24:39;;;;;;;26.10;23.30;;;;;;;15.86;94.46;101061.10;104927;1268;99469;-84
2023/09/10 04:27:25;;;;;;;27.10;23.70;;;;;;;15.85;94.40;101061.59;104979;1273;99381;-85
2023/09/10 04:30:11;;;;;;;31.10;23.90;;;;;;;15.84;94.52;101059.06;104994;1267;102302;-83
2023/09/10 04:32:57;;;;;;;29.10;23.90;;;;;;;15.83;94.58;101060.64;105080;1267;103493;-84
2023/09/10 04:35:49;;;;;;;30.90;24.30;;;;;;;15.82;94.81;101062.84;105251;1267;99408;-85
2023/09/10 04:38:36;;;;;;;27.60;23.80;;;;;;;15.83;95.14;101061.69;104991;1271;99637;-84
2023/09/10 04:41:22;;;;;;;29.30;23.80;;;;;;;15.84;95.37;101063.50;104853;1267;99550;-84
2023/09/10 04:44:07;;;;;;;30.70;24.20;;;;;;;15.86;95.03;101057.30;105126;1267;99845;-85
2023/09/10 04:46:54;;;;;;;24.20;21.60;;;;;;;15.88;95.31;101059.55;104894;1273;102870;-84
2023/09/10 04:49:41;;;;;;;29.40;24.20;;;;;;;15.90;95.39;101060.96;105055;1267;100466;-85
2023/09/10 04:52:26;;;;;;;29.10;24.40;;;;;;;15.91;95.67;101062.63;105001;1267;99349;-85
2023/09/10 04:55:12;;;;;;;30.40;24.60;;;;;;;15.92;96.08;101061.21;105233;1272;99361;-85
2023/09/10 04:57:57;;;;;;;31.00;24.10;;;;;;;15.94;96.35;101057.63;105111;1267;99335;-83
2023/09/10 05:00:43;;;;;;;27.80;23.50;;;;;;;15.97;96.69;101055.30;105206;1271;102713;-85
2023/09/10 05:03:28;;;;;;;29.70;24.60;;;;;;;15.99;96.79;101055.72;105076;1273;99326;-84
2023/09/10 05:06:14;;;;;;;30.60;24.80;;;;;;;16.01;97.22;101052.30;104986;1267;99303;-85
2023/09/10 05:09:02;;;;;;;33.60;24.10;;;;;;;16.04;97.37;101054.81;105103;1273;99357;-86
2023/09/10 05:11:48;;;;;;;28.90;23.60;;;;;;;16.06;97.69;101057.02;105117;1267;100021;-84
2023/09/10 05:14:33;;;;;;;29.80;23.10;;;;;;;16.08;97.72;101060.84;104925;1270;102808;-85
2023/09/10 05:17:19;;;;;;;32.60;25.90;;;;;;;16.11;97.83;101061.55;105083;1273;99338;-84
2023/09/10 05:20:06;;;;;;;30.80;24.50;;;;;;;16.15;98.18;101063.95;105067;1267;99277;-83
2023/09/10 05:22:51;;;;;;;30.50;24.70;;;;;;;16.19;98.67;101064.05;104986;1274;99506;-83
2023/09/10 05:25:37;;;;;;;31.00;24.50;;;;;;;16.24;98.77;101067.34;104994;1272;99307;-84
2023/09/10 05:28:23;;;;;;;29.00;23.50;;;;;;;16.28;99.26;101070.16;104856;1273;102826;-83
2023/09/10 05:31:09;;;;;;;30.00;23.20;;;;;;;16.31;99.46;101068.30;105118;1273;99319;-83
2023/09/10 05:33:55;;;;;;;30.20;25.10;;;;;;;16.36;99.50;101068.95;105226;1267;99026;-84
2023/09/10 05:36:41;;;;;;;30.20;24.00;;;;;;;16.41;99.90;101072.52;104976;1270;99338;-86
2023/09/10 05:39:27;;;;;;;31.40;23.80;;;;;;;16.47;99.98;101074.02;104988;1269;99348;-84
2023/09/10 05:42:13;;;;;;;30.50;24.20;;;;;;;16.52;100.00;101080.59;105146;1267;102771;-83
2023/09/10 05:44:59;;;;;;;28.40;23.80;;;;;;;16.57;100.00;101080.02;105172;1267;99246;-83
2023/09/10 05:47:44;;;;;;;32.60;26.80;;;;;;;16.63;100.00;101080.91;105038;1273;99383;-83
2023/09/10 05:50:30;;;;;;;34.00;28.30;;;;;;;16.71;100.00;101079.80;105164;1267;99380;-86
2023/09/10 05:53:16;;;;;;;30.50;26.90;;;;;;;16.79;100.00;101080.27;105071;1270;99851;-85
2023/09/10 05:56:03;;;;;;;33.50;29.30;;;;;;;16.86;100.00;101079.70;105085;1267;102732;-84
2023/09/10 05:58:49;;;;;;;31.40;27.40;;;;;;;16.92;100.00;101077.98;105295;1272;99935;-84
2023/09/10 06:01:37;;;;;;;33.10;28.00;;;;;;;17.01;100.00;101077.31;105230;1273;99258;-84
2023/09/10 06:04:23;;;;;;;38.30;28.90;;;;;;;17.09;100.00;101074.06;105052;1271;100586;-87
2023/09/10 06:07:08;;;;;;;38.80;28.80;;;;;;;17.17;100.00;101074.41;105080;1268;99776;-86
2023/09/10 06:09:54;;;;;;;34.00;26.40;;;;;;;17.27;100.00;101074.48;105003;1267;102837;-83
2023/09/10 06:12:40;;;;;;;29.10;26.00;;;;;;;17.36;100.00;101076.87;105073;1267;100546;-85
2023/09/10 06:15:27;;;;;;;34.70;27.50;;;;;;;17.45;100.00;101074.35;104921;1273;99435;-83
2023/09/10 06:18:13;;;;;;;32.60;27.50;;;;;;;17.54;100.00;101074.17;105147;1272;99344;-84
2023/09/10 06:20:59;;;;;;;35.30;27.30;;;;;;;17.63;100.00;101083.11;105203;1267;99933;-84
2023/09/10 06:23:45;;;;;;;35.00;27.50;;;;;;;17.73;100.00;101080.65;105250;1270;103507;-84
2023/09/10 06:26:30;;;;;;;34.70;25.50;;;;;;;17.82;100.00;101082.63;105120;1270;99380;-85
2023/09/10 06:29:16;;;;;;;30.50;27.00;;;;;;;17.91;100.00;101083.08;105833;1270;99358;-82
2023/09/10 06:32:01;;;;;;;33.10;26.20;;;;;;;18.01;100.00;101079.18;105270;1273;99432;-81
2023/09/10 06:34:49;;;;;;;29.90;26.70;;;;;;;18.12;100.00;101081.75;105216;1267;100677;-83
2023/09/10 06:37:35;;;;;;;34.90;27.50;;;;;;;18.22;100.00;101082.56;105239;1267;102831;-84
2023/09/10 06:40:21;;;;;;;30.20;26.30;;;;;;;18.32;100.00;101085.00;105421;1268;99453;-82
2023/09/10 06:43:08;;;;;;;27.90;24.80;;;;;;;18.43;100.00;101082.55;105442;1271;99322;-84
2023/09/10 06:45:58;;;;;;;29.90;25.40;;;;;;;18.54;100.00;101084.74;105216;1267;99503;-82
2023/09/10 06:48:43;;;;;;;29.60;25.20;;;;;;;18.64;100.00;101085.45;105372;1269;99394;-83
2023/09/10 06:51:29;;;;;;;33.90;26.10;;;;;;;18.74;100.00;101085.20;105210;1267;103997;-83
2023/09/10 06:54:14;;;;;;;36.60;27.30;;;;;;;18.85;100.00;101083.18;105197;1267;100577;-83
2023/09/10 06:57:00;;;;;;;29.80;23.90;;;;;;;18.96;100.00;101082.68;105246;1273;99364;-83
2023/09/10 06:59:46;;;;;;;29.40;22.50;;;;;;;19.07;100.00;101085.37;105411;1274;99438;-83
2023/09/10 07:02:31;;;;;;;31.50;24.10;;;;;;;19.17;100.00;101085.17;105216;1268;99796;-84
2023/09/10 07:05:17;;;;;;;27.40;22.70;;;;;;;19.29;100.00;101087.86;105441;1273;104037;-83
2023/09/10 07:08:03;;;;;;;28.10;22.70;;;;;;;19.40;100.00;101088.22;105252;1270;100899;-85
2023/09/10 07:10:48;;;;;;;30.60;22.60;;;;;;;19.49;100.00;101086.23;105239;1270;99310;-84
2023/09/10 07:13:36;;;;;;;24.20;21.60;;;;;;;19.59;100.00;101084.92;105174;1272;99523;-84
2023/09/10 07:16:23;;;;;;;27.60;22.30;;;;;;;19.70;100.00;101082.96;105557;1267;99332;-83
2023/09/10 07:19:08;;;;;;;22.80;18.90;;;;;;;19.81;100.00;101084.48;107641;1267;104442;-83
2023/09/10 07:21:54;;;;;;;23.10;19.60;;;;;;;19.92;100.00;101081.37;105487;1267;99316;-84
2023/09/10 07:24:39;;;;;;;24.60;19.90;;;;;;;20.04;100.00;101080.45;105550;1267;99372;-84
2023/09/10 07:27:25;;;;;;;24.20;18.70;;;;;;;20.16;100.00;101081.56;105182;1268;99460;-84
2023/09/10 07:30:11;;;;;;;21.90;18.80;;;;;;;20.28;99.89;101080.23;105224;1267;99517;-83
2023/09/10 07:32:56;;;;;;;23.40;19.10;;;;;;;20.40;99.52;101079.41;105110;1268;103701;-83
2023/09/10 07:35:42;;;;;;;26.20;19.40;;;;;;;20.50;99.08;101077.73;105213;1267;99778;-82
2023/09/10 07:38:28;;;;;;;23.40;19.30;;;;;;;20.61;99.20;101078.65;105263;1271;99255;-82
2023/09/10 07:41:14;;;;;;;23.30;18.50;;;;;;;20.70;98.88;101074.39;105071;1267;99371;-82
2023/09/10 07:44:02;;;;;;;22.40;18.90;;;;;;;20.81;98.94;101071.23;105145;1272;99360;-84
2023/09/10 07:46:47;;;;;;;21.80;19.20;;;;;;;20.90;98.15;101069.86;105225;1267;104099;-82
2023/09/10 07:49:33;;;;;;;19.70;17.30;;;;;;;21.00;98.00;101064.83;105108;1268;99431;-83
2023/09/10 07:52:18;;;;;;;21.40;17.90;;;;;;;21.10;97.82;101063.57;105169;1268;99399;-83
2023/09/10 07:55:04;;;;;;;18.90;16.90;;;;;;;21.19;97.09;101063.33;105178;1267;99357;-83
2023/09/10 07:57:49;;;;;;;20.90;16.40;;;;;;;21.28;96.99;101064.23;105142;1267;99295;-83
2023/09/10 08:00:36;;;;;;;20.80;17.20;;;;;;;21.37;97.47;101062.38;105120;1268;102867;-84
2023/09/10 08:03:22;;;;;;;17.80;15.30;;;;;;;21.50;97.40;101068.66;104969;1273;99833;-83
2023/09/10 08:06:08;;;;;;;23.10;16.00;;;;;;;21.60;96.64;101069.86;105165;1273;99340;-83
2023/09/10 08:08:53;;;;;;;21.50;16.10;;;;;;;21.69;96.64;101073.01;105272;1273;99414;-82
2023/09/10 08:11:39;;;;;;;20.80;16.50;;;;;;;21.80;96.51;101074.50;105247;1267;100629;-84
2023/09/10 08:14:24;;;;;;;24.30;16.10;;;;;;;21.87;95.37;101077.98;105077;1273;103456;-83
2023/09/10 08:17:09;;;;;;;23.90;15.70;;;;;;;21.94;94.76;101080.48;105261;1273;99451;-83
2023/09/10 08:19:55;;;;;;;19.20;14.90;;;;;;;22.03;94.56;101077.83;105268;1268;99818;-82
2023/09/10 08:22:42;;;;;;;19.70;15.10;;;;;;;22.13;94.63;101076.16;105272;1267;99476;-82
2023/09/10 08:25:28;;;;;;;16.10;14.40;;;;;;;22.23;94.57;101078.06;105165;1267;99991;-83
2023/09/10 08:28:14;;;;;;;19.70;14.10;;;;;;;22.33;93.26;101076.13;105291;1273;102812;-83
2023/09/10 08:30:59;;;;;;;17.80;14.00;;;;;;;22.41;92.67;101072.68;105047;1273;100039;-82
2023/09/10 08:33:45;;;;;;;26.60;14.00;;;;;;;22.51;92.33;101071.79;105174;1273;99248;-82
2023/09/10 08:36:31;;;;;;;17.80;14.40;;;;;;;22.60;91.68;101070.23;105119;1270;99457;-84
2023/09/10 08:39:16;;;;;;;15.30;12.90;;;;;;;22.70;91.11;101066.86;105400;1270;99867;-84
2023/09/10 08:42:18;;;;;;;14.40;12.90;;;;;;;22.80;90.85;101069.77;105130;1268;104106;-85
2023/09/10 08:45:10;;;;;;;13.10;11.70;;;;;;;22.90;90.32;101071.58;105246;1268;99424;-83
2023/09/10 08:48:00;;;;;;;15.30;12.20;;;;;;;22.98;89.63;101063.53;105177;1271;99242;-84
2023/09/10 08:50:46;;;;;;;13.30;11.80;;;;;;;23.08;89.12;101053.58;105184;1273;99479;-84
2023/09/10 08:53:34;;;;;;;16.40;12.00;;;;;;;23.17;88.47;101052.95;105096;1266;99663;-83
2023/09/10 08:56:20;;;;;;;18.90;12.30;;;;;;;23.26;88.88;101050.20;105036;1273;102787;-83
2023/09/10 08:59:07;;;;;;;14.00;11.60;;;;;;;23.33;87.80;101047.84;105202;1268;99791;-82
2023/09/10 09:01:55;;;;;;;14.20;11.40;;;;;;;23.40;87.44;101047.40;105237;1267;99350;-84
2023/09/10 09:04:42;;;;;;;13.80;10.70;;;;;;;23.50;86.89;101041.70;105141;1267;99422;-84
2023/09/10 09:07:34;;;;;;;12.00;9.90;;;;;;;23.59;86.82;101034.61;105046;1267;100335;-84
2023/09/10 09:10:27;;;;;;;15.60;10.80;;;;;;;23.70;86.79;101032.43;105135;1268;102873;-83
2023/09/10 09:13:15;;;;;;;14.10;9.50;;;;;;;23.79;85.21;101034.48;105323;1267;99653;-84
2023/09/10 09:16:02;;;;;;;14.00;11.60;;;;;;;23.87;84.59;101037.92;105171;1273;99484;-84
2023/09/10 09:18:48;;;;;;;16.80;11.20;;;;;;;23.94;84.36;101033.36;105207;1272;99275;-84
2023/09/10 09:21:35;;;;;;;18.00;11.50;;;;;;;24.03;84.13;101032.68;105131;1267;99432;-84
2023/09/10 09:24:22;;;;;;;15.90;10.80;;;;;;;24.11;83.59;101032.41;105004;1268;104625;-85
2023/09/10 09:27:10;;;;;;;14.80;10.60;;;;;;;24.18;82.86;101028.62;105005;1273;99464;-85
2023/09/10 09:29:56;;;;;;;18.10;10.30;;;;;;;24.26;82.96;101026.14;105157;1273;99423;-84
2023/09/10 09:32:45;;;;;;;11.50;9.60;;;;;;;24.34;82.61;101022.62;105096;1273;99317;-83
2023/09/10 09:35:33;;;;;;;13.50;11.00;;;;;;;24.43;81.90;101024.02;105115;1273;99432;-84
2023/09/10 09:38:20;;;;;;;15.60;10.30;;;;;;;24.52;81.23;101024.83;105156;1268;103770;-84
2023/09/10 09:41:06;;;;;;;18.20;9.80;;;;;;;24.58;81.22;101020.70;105032;1276;99761;-85
2023/09/10 09:43:51;;;;;;;14.70;10.20;;;;;;;24.66;80.78;101013.38;105016;1273;99373;-84
2023/09/10 09:46:37;;;;;;;11.80;9.10;;;;;;;24.73;80.25;101014.66;104878;1276;99654;-84
2023/09/10 09:49:23;;;;;;;15.30;9.90;;;;;;;24.79;79.83;101009.16;105086;1267;99408;-84
2023/09/10 09:52:11;;;;;;;15.70;8.70;;;;;;;24.86;79.63;101002.28;105191;1268;102827;-88
2023/09/10 09:54:56;;;;;;;16.90;8.90;;;;;;;24.94;79.04;100999.27;104959;1273;99360;-83
2023/09/10 09:57:46;;;;;;;12.30;8.30;;;;;;;25.01;78.58;100997.70;105156;1267;99463;-83
2023/09/10 10:00:34;;;;;;;14.60;8.70;;;;;;;25.09;77.91;100994.42;105222;1273;101279;-83
2023/09/10 10:03:20;;;;;;;11.40;8.70;;;;;;;25.15;77.32;100996.94;105511;1273;99823;-85
2023/09/10 10:06:06;;;;;;;11.90;8.20;;;;;;;25.21;76.29;100992.33;105095;1276;102826;-84
2023/09/10 10:08:51;;;;;;;12.10;8.50;;;;;;;25.26;76.04;100986.25;105269;1268;99316;-82
2023/09/10 10:11:37;;;;;;;12.40;8.20;;;;;;;25.33;75.82;100985.22;105350;1273;99272;-84
2023/09/10 10:14:23;;;;;;;13.80;7.50;;;;;;;25.41;74.65;100976.67;105304;1267;97286;-84
2023/09/10 10:17:09;;;;;;;15.20;8.60;;;;;;;25.48;74.46;100975.48;105738;1268;99235;-81
2023/09/10 10:19:56;;;;;;;13.40;8.10;;;;;;;25.57;74.05;100974.20;106168;1268;104017;-81
2023/09/10 10:22:42;;;;;;;12.70;7.50;;;;;;;25.68;73.16;100977.42;106167;1269;99913;-81
2023/09/10 10:25:29;;;;;;;14.40;8.10;;;;;;;25.74;73.03;100973.07;106242;1272;99261;-81
2023/09/10 10:28:14;;;;;;;14.20;7.30;;;;;;;25.81;72.82;100965.52;106096;1272;99417;-81
2023/09/10 10:31:15;;;;;;;16.40;8.20;;;;;;;25.89;71.95;100966.27;106091;1267;99265;-82
2023/09/10 10:34:16;;;;;;;16.50;8.00;;;;;;;25.94;71.28;100967.92;106105;1267;102870;-82
2023/09/10 10:37:24;;;;;;;13.30;8.00;;;;;;;26.01;70.85;100964.16;106101;1268;100433;-82
2023/09/10 10:40:19;;;;;;;9.70;6.90;;;;;;;26.08;70.59;100962.18;106030;1267;99608;-82
2023/09/10 10:43:29;;;;;;;14.00;7.00;;;;;;;26.15;69.89;100962.48;106214;1271;97075;-82
2023/09/10 10:46:17;;;;;;;14.20;7.30;;;;;;;26.23;68.88;100959.23;106196;1267;97531;-81
2023/09/10 10:49:06;;;;;;;11.20;6.70;;;;;;;26.28;68.36;100956.99;106165;1270;103339;-81
2023/09/10 10:51:54;;;;;;;17.30;7.40;;;;;;;26.33;68.00;100954.34;105890;1273;100384;-81
2023/09/10 10:54:42;;;;;;;14.10;6.80;;;;;;;26.37;68.02;100954.54;106021;1268;97979;-80
2023/09/10 10:57:28;;;;;;;16.60;7.50;;;;;;;26.42;68.17;100956.77;106384;1267;99434;-81
2023/09/10 11:00:14;;;;;;;14.20;6.80;;;;;;;26.48;67.19;100961.29;105995;1270;99719;-82
2023/09/10 11:03:16;;;;;;;16.10;7.70;;;;;;;26.53;66.36;100957.02;106152;1267;102847;-82
2023/09/10 11:06:07;;;;;;;16.40;7.00;;;;;;;26.57;66.75;100958.48;106192;1268;100849;-81
2023/09/10 11:08:52;;;;;;;16.00;7.60;;;;;;;26.62;65.94;100954.39;106102;1267;99326;-81
2023/09/10 11:11:38;;;;;;;17.60;7.20;;;;;;;26.67;65.87;100952.05;105988;1268;99370;-81
2023/09/10 11:14:24;;;;;;;17.80;7.20;;;;;;;26.69;65.23;100952.65;105709;1267;99246;-82
2023/09/10 11:17:24;;;;;;;14.40;7.20;;;;;;;26.75;65.02;100950.94;105725;1272;102836;-83
2023/09/10 11:20:09;;;;;;;16.70;8.00;;;;;;;26.81;65.00;100950.24;105887;1268;100055;-86
2023/09/10 11:23:07;;;;;;;14.10;7.30;;;;;;;26.87;64.96;100949.86;105368;1268;106693;-83
2023/09/10 11:25:52;;;;;;;18.00;7.40;;;;;;;26.91;64.78;100947.68;105179;1273;99268;-82
2023/09/10 11:28:50;;;;;;;16.90;7.40;;;;;;;27.00;64.95;100945.38;105430;1273;101040;-83
2023/09/10 11:31:39;;;;;;;15.10;7.40;;;;;;;27.06;64.92;100942.02;105759;1274;103521;-89
2023/09/10 11:34:27;;;;;;;19.20;7.40;;;;;;;27.13;64.82;100943.98;105626;1267;100570;-89
2023/09/10 11:37:12;;;;;;;17.90;7.60;;;;;;;27.19;64.04;100940.52;105777;1267;99216;-87
2023/09/10 11:40:00;;;;;;;18.10;7.50;;;;;;;27.23;63.53;100937.70;105482;1276;99319;-86
2023/09/10 11:42:48;;;;;;;18.30;8.10;;;;;;;27.25;63.59;100937.23;105407;1273;99891;-88
2023/09/10 11:45:34;;;;;;;15.00;7.40;;;;;;;27.29;63.47;100932.09;105796;1275;102691;-89
2023/09/10 11:48:20;;;;;;;19.40;8.00;;;;;;;27.34;63.21;100929.04;105808;1268;99376;-87
2023/09/10 11:51:06;;;;;;;11.40;6.60;;;;;;;27.39;62.62;100929.38;105515;1268;99349;-89
2023/09/10 11:53:52;;;;;;;18.90;6.90;;;;;;;27.43;62.46;100926.54;105283;1271;99796;-83
2023/09/10 11:56:40;;;;;;;17.70;8.30;;;;;;;27.46;62.06;100926.94;105486;1267;99876;-90
2023/09/10 11:59:29;;;;;;;21.80;7.20;;;;;;;27.50;61.40;100921.55;105736;1267;103433;-89
2023/09/10 12:02:17;;;;;;;21.60;8.60;;;;;;;27.54;61.47;100919.83;105753;1270;101333;-89
2023/09/10 12:05:07;;;;;;;11.70;7.50;;;;;;;27.58;61.57;100916.98;105884;1273;99139;-87
2023/09/10 12:07:57;;;;;;;13.40;7.20;;;;;;;27.64;61.26;100913.88;105466;1273;100642;-88
2023/09/10 12:10:44;;;;;;;18.50;7.60;;;;;;;27.68;61.41;100908.39;105220;1273;99435;-86
2023/09/10 12:13:32;;;;;;;17.50;7.90;;;;;;;27.75;61.07;100904.56;105337;1273;104097;-84
2023/09/10 12:16:19;;;;;;;16.40;7.40;;;;;;;27.81;60.81;100905.54;105818;1272;101486;-82
2023/09/10 12:19:06;;;;;;;15.70;7.20;;;;;;;27.87;60.45;100902.38;105245;1270;99351;-83
2023/09/10 12:21:51;;;;;;;19.20;7.70;;;;;;;27.91;60.33;100901.89;105464;1272;99304;-88
2023/09/10 12:24:38;;;;;;;23.40;7.10;;;;;;;27.94;59.91;100904.55;105419;1273;99898;-86
2023/09/10 12:27:24;;;;;;;19.80;7.50;;;;;;;27.95;59.93;100903.10;105363;1272;102959;-86
2023/09/10 12:30:11;;;;;;;18.60;7.50;;;;;;;27.98;59.99;100899.52;105231;1269;100298;-85